createdAt,value
2022-10-31T00:01:29.991Z,15.58
2022-10-31T00:03:56.604Z,15.80
2022-10-31T00:06:25.104Z,15.70
2022-10-31T00:08:57.038Z,15.65
2022-10-31T00:11:27.735Z,15.68
2022-10-31T00:13:58.194Z,15.64
2022-10-31T00:16:29.357Z,15.55
2022-10-31T00:19:04.135Z,15.45
2022-10-31T00:21:31.750Z,15.44
2022-10-31T00:23:59.663Z,15.39
2022-10-31T00:26:30.575Z,15.43
2022-10-31T00:29:01.391Z,15.52
2022-10-31T00:31:28.475Z,15.72
2022-10-31T00:33:57.338Z,15.64
2022-10-31T00:36:23.900Z,15.61
2022-10-31T00:38:50.418Z,15.66
2022-10-31T00:41:18.666Z,15.62
2022-10-31T00:43:45.648Z,15.49
2022-10-31T00:46:13.478Z,15.60
2022-10-31T00:48:40.277Z,15.52
2022-10-31T00:51:07.163Z,15.47
2022-10-31T00:53:33.886Z,15.42
2022-10-31T00:56:00.636Z,15.45
2022-10-31T00:58:30.771Z,15.36
2022-10-31T01:01:01.131Z,15.39
2022-10-31T01:03:33.088Z,15.53
2022-10-31T01:06:12.151Z,15.65
2022-10-31T01:08:39.729Z,15.45
2022-10-31T01:11:08.164Z,15.34
2022-10-31T01:13:36.081Z,15.36
2022-10-31T01:16:04.389Z,15.36
2022-10-31T01:18:31.509Z,15.38
2022-10-31T01:21:09.573Z,15.52
2022-10-31T01:23:36.384Z,15.41
2022-10-31T01:26:05.950Z,15.35
2022-10-31T01:28:32.681Z,15.35
2022-10-31T01:31:04.806Z,15.33
2022-10-31T01:33:31.414Z,15.41
2022-10-31T01:35:59.844Z,15.41
2022-10-31T01:38:26.577Z,15.46
2022-10-31T01:40:53.412Z,15.55
2022-10-31T01:45:54.616Z,15.98
2022-10-31T01:48:27.945Z,15.94
2022-10-31T01:50:55.880Z,16.04
2022-10-31T01:53:26.814Z,15.77
2022-10-31T01:55:54.012Z,15.64
2022-10-31T01:58:26.560Z,15.60
2022-10-31T02:01:03.411Z,15.64
2022-10-31T02:03:34.001Z,15.59
2022-10-31T02:06:07.258Z,15.43
2022-10-31T02:08:36.176Z,15.45
2022-10-31T02:11:08.335Z,15.49
2022-10-31T02:13:35.279Z,15.49
2022-10-31T02:16:05.171Z,15.57
2022-10-31T02:18:35.166Z,15.46
2022-10-31T02:21:24.100Z,15.25
2022-10-31T02:24:08.709Z,15.23
2022-10-31T02:26:47.285Z,15.11
2022-10-31T02:29:49.817Z,15.02
2022-10-31T02:32:39.754Z,15.02
2022-10-31T02:35:24.910Z,15.06
2022-10-31T02:38:05.443Z,15.00
2022-10-31T02:40:37.196Z,15.27
2022-10-31T02:45:50.936Z,15.12
2022-10-31T02:48:25.407Z,15.13
2022-10-31T02:50:58.862Z,15.16
2022-10-31T02:53:25.404Z,15.16
2022-10-31T02:56:13.948Z,15.17
2022-10-31T02:58:56.743Z,15.04
2022-10-31T03:01:35.673Z,15.02
2022-10-31T03:04:24.372Z,14.93
2022-10-31T03:07:00.991Z,15.04
2022-10-31T03:09:52.790Z,14.97
2022-10-31T03:12:30.686Z,15.11
2022-10-31T03:15:14.423Z,15.24
2022-10-31T03:17:50.781Z,15.09
2022-10-31T03:20:23.567Z,15.17
2022-10-31T03:22:50.205Z,15.13
2022-10-31T03:25:17.983Z,15.08
2022-10-31T03:27:47.151Z,15.24
2022-10-31T03:30:15.141Z,15.15
2022-10-31T03:32:55.595Z,15.12
2022-10-31T03:35:25.024Z,15.13
2022-10-31T03:37:55.610Z,15.05
2022-10-31T03:40:25.956Z,15.02
2022-10-31T03:43:24.149Z,15.08
2022-10-31T03:45:50.934Z,15.06
2022-10-31T03:48:21.121Z,15.02
2022-10-31T03:51:07.840Z,14.94
2022-10-31T03:54:08.182Z,14.61
2022-10-31T03:56:52.365Z,14.44
2022-10-31T03:59:24.798Z,14.41
2022-10-31T04:01:55.705Z,14.30
2022-10-31T04:04:22.901Z,14.14
2022-10-31T04:06:51.636Z,14.27
2022-10-31T04:09:20.380Z,14.29
2022-10-31T04:11:52.029Z,14.23
2022-10-31T04:14:18.520Z,14.31
2022-10-31T04:16:46.213Z,14.30
2022-10-31T04:19:13.415Z,14.21
2022-10-31T04:21:40.023Z,14.45
2022-10-31T04:24:07.165Z,14.49
2022-10-31T04:26:34.557Z,14.53
2022-10-31T04:29:01.295Z,14.52
2022-10-31T04:31:28.303Z,14.51
2022-10-31T04:33:54.962Z,14.39
2022-10-31T04:36:21.651Z,14.46
2022-10-31T04:38:48.151Z,14.44
2022-10-31T04:41:14.673Z,14.47
2022-10-31T04:43:43.935Z,14.48
2022-10-31T04:46:13.523Z,14.52
2022-10-31T04:48:42.848Z,14.49
2022-10-31T04:51:10.508Z,14.53
2022-10-31T04:53:37.055Z,14.59
2022-10-31T04:56:03.824Z,14.57
2022-10-31T04:58:30.366Z,14.45
2022-10-31T05:00:57.646Z,14.55
2022-10-31T05:03:24.295Z,14.42
2022-10-31T05:05:50.959Z,14.37
2022-10-31T05:08:17.447Z,14.40
2022-10-31T05:10:43.961Z,14.41
2022-10-31T05:13:16.532Z,14.44
2022-10-31T05:15:43.095Z,14.54
2022-10-31T05:18:09.699Z,14.55
2022-10-31T05:20:36.229Z,14.38
2022-10-31T05:23:02.807Z,14.58
2022-10-31T05:25:30.555Z,14.65
2022-10-31T05:27:58.271Z,14.70
2022-10-31T05:30:28.048Z,14.95
2022-10-31T05:32:54.611Z,14.89
2022-10-31T05:35:26.941Z,14.85
2022-10-31T05:37:53.525Z,14.68
2022-10-31T05:40:21.430Z,14.64
2022-10-31T05:42:48.676Z,14.63
2022-10-31T05:45:17.109Z,14.41
2022-10-31T05:47:50.860Z,14.53
2022-10-31T05:50:17.522Z,14.61
2022-10-31T05:52:45.073Z,14.54
2022-10-31T05:55:11.593Z,14.60
2022-10-31T05:57:38.094Z,14.52
2022-10-31T06:00:06.066Z,14.47
2022-10-31T06:02:35.623Z,14.35
2022-10-31T06:05:02.901Z,14.33
2022-10-31T06:07:34.050Z,14.41
2022-10-31T06:10:01.172Z,14.35
2022-10-31T06:12:27.716Z,14.25
2022-10-31T06:14:54.202Z,14.27
2022-10-31T06:17:20.703Z,14.28
2022-10-31T06:19:47.293Z,14.22
2022-10-31T06:22:16.249Z,14.20
2022-10-31T06:24:42.772Z,14.12
2022-10-31T06:27:09.257Z,14.04
2022-10-31T06:29:35.728Z,14.24
2022-10-31T06:32:02.268Z,14.35
2022-10-31T06:34:28.766Z,14.45
2022-10-31T06:36:55.241Z,14.48
2022-10-31T06:39:21.774Z,14.76
2022-10-31T06:41:49.491Z,14.86
2022-10-31T06:44:19.221Z,14.80
2022-10-31T06:46:50.212Z,14.74
2022-10-31T06:49:20.242Z,14.78
2022-10-31T06:51:50.693Z,14.81
2022-10-31T06:54:20.610Z,14.86
2022-10-31T06:56:48.454Z,14.78
2022-10-31T06:59:19.783Z,14.87
2022-10-31T07:01:49.543Z,14.83
2022-10-31T07:04:16.905Z,14.92
2022-10-31T07:06:48.160Z,15.14
2022-10-31T07:09:20.652Z,15.30
2022-10-31T07:11:52.821Z,15.36
2022-10-31T07:14:20.627Z,15.67
2022-10-31T07:16:51.858Z,16.17
2022-10-31T07:19:21.780Z,16.78
2022-10-31T07:21:52.087Z,17.16
2022-10-31T07:24:22.338Z,17.57
2022-10-31T07:26:50.764Z,18.04
2022-10-31T07:29:20.089Z,18.25
2022-10-31T07:31:48.345Z,18.24
2022-10-31T07:34:15.160Z,18.52
2022-10-31T07:36:41.694Z,18.66
2022-10-31T07:39:08.487Z,18.78
2022-10-31T07:41:35.327Z,19.11
2022-10-31T07:44:02.107Z,19.29
2022-10-31T07:46:30.138Z,19.02
2022-10-31T07:48:56.975Z,18.99
2022-10-31T07:51:25.146Z,19.11
2022-10-31T07:53:53.621Z,19.22
2022-10-31T07:56:24.572Z,19.43
2022-10-31T07:58:51.576Z,19.74
2022-10-31T08:01:18.052Z,19.92
2022-10-31T08:03:44.553Z,19.89
2022-10-31T08:06:11.349Z,20.00
2022-10-31T08:08:38.660Z,20.37
2022-10-31T08:11:05.411Z,20.87
2022-10-31T08:13:31.946Z,20.98
2022-10-31T08:16:04.297Z,21.04
2022-10-31T08:18:31.463Z,21.01
2022-10-31T08:20:58.642Z,20.91
2022-10-31T08:23:25.208Z,21.13
2022-10-31T08:25:51.875Z,21.39
2022-10-31T08:28:24.416Z,21.50
2022-10-31T08:30:51.736Z,21.49
2022-10-31T08:33:23.010Z,21.61
2022-10-31T08:35:53.333Z,21.61
2022-10-31T08:38:23.657Z,21.68
2022-10-31T08:40:53.019Z,21.78
2022-10-31T08:43:22.320Z,22.06
2022-10-31T08:45:51.177Z,22.50
2022-10-31T08:48:21.288Z,22.60
2022-10-31T08:50:48.105Z,22.62
2022-10-31T08:53:16.105Z,22.62
2022-10-31T08:55:43.757Z,22.88
2022-10-31T08:58:24.634Z,22.91
2022-10-31T09:00:55.617Z,23.17
2022-10-31T09:03:27.458Z,23.31
2022-10-31T09:06:03.807Z,23.44
2022-10-31T09:08:32.137Z,23.55
2022-10-31T09:10:59.721Z,23.74
2022-10-31T09:13:28.287Z,24.07
2022-10-31T09:15:55.053Z,23.90
2022-10-31T09:18:23.846Z,23.94
2022-10-31T09:20:53.502Z,24.17
2022-10-31T09:23:24.084Z,24.24
2022-10-31T09:25:53.430Z,24.24
2022-10-31T09:28:24.918Z,24.33
2022-10-31T09:30:54.059Z,24.49
2022-10-31T09:33:21.836Z,25.09
2022-10-31T09:35:50.816Z,25.16
2022-10-31T09:38:24.497Z,24.68
2022-10-31T09:41:03.221Z,24.41
2022-10-31T09:43:43.109Z,24.40
2022-10-31T09:46:22.138Z,24.55
2022-10-31T09:48:54.808Z,24.59
2022-10-31T09:51:33.232Z,24.36
2022-10-31T09:54:02.879Z,24.69
2022-10-31T09:56:32.443Z,24.88
2022-10-31T09:59:06.027Z,25.54
2022-10-31T10:01:57.175Z,25.81
2022-10-31T10:04:58.187Z,25.87
2022-10-31T10:07:33.982Z,25.93
2022-10-31T10:10:02.882Z,25.95
2022-10-31T10:13:11.870Z,25.91
2022-10-31T10:15:52.285Z,25.86
2022-10-31T10:18:57.634Z,25.68
2022-10-31T10:21:33.156Z,25.30
2022-10-31T10:24:30.432Z,25.43
2022-10-31T10:27:06.416Z,25.32
2022-10-31T10:29:43.757Z,25.37
2022-10-31T10:32:28.465Z,25.16
2022-10-31T10:35:03.376Z,25.27
2022-10-31T10:37:38.666Z,24.99
2022-10-31T10:40:26.425Z,24.84
2022-10-31T10:43:32.050Z,25.05
2022-10-31T10:46:54.975Z,25.68
2022-10-31T10:49:53.743Z,26.13
2022-10-31T10:52:50.187Z,26.54
2022-10-31T10:55:39.170Z,26.90
2022-10-31T10:58:08.982Z,26.75
2022-10-31T11:00:39.266Z,26.96
2022-10-31T11:03:06.702Z,27.54
2022-10-31T11:05:36.720Z,27.77
2022-10-31T11:08:04.974Z,27.55
2022-10-31T11:10:31.598Z,27.08
2022-10-31T11:13:22.991Z,26.26
2022-10-31T11:16:06.073Z,25.31
2022-10-31T11:18:35.697Z,25.18
2022-10-31T11:21:05.254Z,25.63
2022-10-31T11:23:32.772Z,26.36
2022-10-31T11:26:07.352Z,26.55
2022-10-31T11:28:38.012Z,26.47
2022-10-31T11:31:13.031Z,26.57
2022-10-31T11:33:52.961Z,26.82
2022-10-31T11:36:30.557Z,26.89
2022-10-31T11:38:59.005Z,27.06
2022-10-31T11:41:32.721Z,27.08
2022-10-31T11:44:02.488Z,26.93
2022-10-31T11:46:40.653Z,26.95
2022-10-31T11:49:18.450Z,26.84
2022-10-31T11:51:49.974Z,26.69
2022-10-31T11:54:42.898Z,26.31
2022-10-31T11:57:30.398Z,26.48
2022-10-31T11:59:59.670Z,26.53
2022-10-31T12:02:27.442Z,27.00
2022-10-31T12:05:19.276Z,26.96
2022-10-31T12:07:45.774Z,26.99
2022-10-31T12:10:13.614Z,27.08
2022-10-31T12:12:54.180Z,27.12
2022-10-31T12:15:23.003Z,27.35
2022-10-31T12:18:04.970Z,27.47
2022-10-31T12:21:01.039Z,28.02
2022-10-31T12:23:42.886Z,28.22
2022-10-31T12:26:38.207Z,27.80
2022-10-31T12:29:04.664Z,27.90
2022-10-31T12:31:58.744Z,27.45
2022-10-31T12:34:42.671Z,27.18
2022-10-31T12:37:41.606Z,27.50
2022-10-31T12:40:08.061Z,27.51
2022-10-31T12:42:58.916Z,27.43
2022-10-31T12:45:41.318Z,27.21
2022-10-31T12:48:46.388Z,26.90
2022-10-31T12:51:31.356Z,26.54
2022-10-31T12:54:16.418Z,26.59
2022-10-31T12:57:01.292Z,26.24
2022-10-31T12:59:42.276Z,26.35
2022-10-31T13:02:19.793Z,26.97
2022-10-31T13:05:05.883Z,27.69
2022-10-31T13:07:40.382Z,28.09
2022-10-31T13:10:14.515Z,28.23
2022-10-31T13:12:42.823Z,27.88
2022-10-31T13:15:28.730Z,27.57
2022-10-31T13:18:07.765Z,27.40
2022-10-31T13:20:41.635Z,27.26
2022-10-31T13:23:44.637Z,27.40
2022-10-31T13:26:43.291Z,27.64
2022-10-31T13:29:20.480Z,27.53
2022-10-31T13:31:47.177Z,27.39
2022-10-31T13:34:25.995Z,27.17
2022-10-31T13:37:00.288Z,27.15
2022-10-31T13:39:47.849Z,27.12
2022-10-31T13:42:33.598Z,27.37
2022-10-31T13:45:14.825Z,27.15
2022-10-31T13:47:55.792Z,26.90
2022-10-31T13:50:31.160Z,26.57
2022-10-31T13:53:18.377Z,26.19
2022-10-31T13:55:50.757Z,25.83
2022-10-31T13:58:29.336Z,25.62
2022-10-31T14:01:14.680Z,25.37
2022-10-31T14:04:05.052Z,25.16
2022-10-31T14:06:49.109Z,25.00
2022-10-31T14:09:29.833Z,24.71
2022-10-31T14:11:58.928Z,24.83
2022-10-31T14:14:34.016Z,24.78
2022-10-31T14:17:01.077Z,24.64
2022-10-31T14:19:28.586Z,24.63
2022-10-31T14:21:59.029Z,24.66
2022-10-31T14:24:25.490Z,24.76
2022-10-31T14:26:57.888Z,24.87
2022-10-31T14:29:28.797Z,25.00
2022-10-31T14:32:15.686Z,25.19
2022-10-31T14:34:56.878Z,25.26
2022-10-31T14:38:20.175Z,25.26
2022-10-31T14:41:01.870Z,25.00
2022-10-31T14:43:40.700Z,24.66
2022-10-31T14:46:31.878Z,24.49
2022-10-31T14:49:21.266Z,24.44
2022-10-31T14:51:49.484Z,24.40
2022-10-31T14:54:25.297Z,24.43
2022-10-31T14:57:00.745Z,24.16
2022-10-31T14:59:39.096Z,24.08
2022-10-31T15:02:37.701Z,23.90
2022-10-31T15:05:09.747Z,23.81
2022-10-31T15:07:37.586Z,23.56
2022-10-31T15:10:06.045Z,23.47
2022-10-31T15:12:35.441Z,23.43
2022-10-31T15:15:27.911Z,23.15
2022-10-31T15:18:00.980Z,23.02
2022-10-31T15:20:31.033Z,22.82
2022-10-31T15:22:59.411Z,22.84
2022-10-31T15:25:29.431Z,22.72
2022-10-31T15:27:56.209Z,22.59
2022-10-31T15:30:30.295Z,22.60
2022-10-31T15:32:59.032Z,22.54
2022-10-31T15:35:31.093Z,22.56
2022-10-31T15:37:59.579Z,22.62
2022-10-31T15:40:29.475Z,22.54
2022-10-31T15:43:05.665Z,22.36
2022-10-31T15:45:32.363Z,22.42
2022-10-31T15:48:00.896Z,22.50
2022-10-31T15:50:30.646Z,22.46
2022-10-31T15:53:01.705Z,22.43
2022-10-31T15:55:33.319Z,22.38
2022-10-31T15:58:05.731Z,22.20
2022-10-31T16:00:35.208Z,22.26
2022-10-31T16:03:11.140Z,22.26
2022-10-31T16:05:44.310Z,22.20
2022-10-31T16:08:29.654Z,22.22
2022-10-31T16:11:01.641Z,22.18
2022-10-31T16:13:31.903Z,22.10
2022-10-31T16:16:33.061Z,22.03
2022-10-31T16:18:49.598Z,21.90
2022-10-31T16:21:16.590Z,21.89
2022-10-31T16:23:51.465Z,21.90
2022-10-31T16:26:20.110Z,21.89
2022-10-31T16:29:03.187Z,21.83
2022-10-31T16:31:38.943Z,21.82
2022-10-31T16:34:06.597Z,21.70
2022-10-31T16:36:44.518Z,21.71
2022-10-31T16:39:11.139Z,21.77
2022-10-31T16:41:47.295Z,21.63
2022-10-31T16:44:22.392Z,21.55
2022-10-31T16:46:49.327Z,21.63
2022-10-31T16:49:16.612Z,21.68
2022-10-31T16:51:43.888Z,21.67
2022-10-31T16:54:11.782Z,21.71
2022-10-31T16:56:39.061Z,21.43
2022-10-31T16:59:15.811Z,21.49
2022-10-31T17:01:50.221Z,21.48
2022-10-31T17:04:16.931Z,21.53
2022-10-31T17:06:43.442Z,21.56
2022-10-31T17:09:10.556Z,21.58
2022-10-31T17:11:37.444Z,21.61
2022-10-31T17:14:04.979Z,21.52
2022-10-31T17:16:31.462Z,21.39
2022-10-31T17:19:00.326Z,21.35
2022-10-31T17:21:30.143Z,21.37
2022-10-31T17:23:56.695Z,21.35
2022-10-31T17:26:23.277Z,21.39
2022-10-31T17:28:49.838Z,21.41
2022-10-31T17:31:22.744Z,21.38
2022-10-31T17:33:50.163Z,21.21
2022-10-31T17:36:17.067Z,21.15
2022-10-31T17:38:43.582Z,21.20
2022-10-31T17:41:11.440Z,21.04
2022-10-31T17:43:38.689Z,21.20
2022-10-31T17:46:05.445Z,21.16
2022-10-31T17:48:36.588Z,21.08
2022-10-31T17:51:04.949Z,21.11
2022-10-31T17:53:35.092Z,21.14
2022-10-31T17:56:07.060Z,21.20
2022-10-31T17:58:35.657Z,21.16
2022-10-31T18:01:10.883Z,21.17
2022-10-31T18:03:38.694Z,21.02
2022-10-31T18:06:05.964Z,20.98
2022-10-31T18:08:35.267Z,21.00
2022-10-31T18:11:10.992Z,20.99
2022-10-31T18:13:38.437Z,21.03
2022-10-31T18:16:13.144Z,21.09
2022-10-31T18:18:40.427Z,21.07
2022-10-31T18:21:07.383Z,21.09
2022-10-31T18:23:34.723Z,20.94
2022-10-31T18:26:01.274Z,21.07
2022-10-31T18:28:27.984Z,21.09
2022-10-31T18:30:54.759Z,21.11
2022-10-31T18:33:21.326Z,21.00
2022-10-31T18:35:47.888Z,21.16
2022-10-31T18:38:14.392Z,21.14
2022-10-31T18:40:40.948Z,21.14
2022-10-31T18:43:07.429Z,21.15
2022-10-31T18:45:46.577Z,21.17
2022-10-31T18:48:14.670Z,21.09
2022-10-31T18:50:41.580Z,21.11
2022-10-31T18:53:08.793Z,20.88
2022-10-31T18:55:43.891Z,20.74
2022-10-31T18:58:17.118Z,20.62
2022-10-31T19:00:44.832Z,20.53
2022-10-31T19:03:12.164Z,20.48
2022-10-31T19:05:38.770Z,20.28
2022-10-31T19:08:08.929Z,20.23
2022-10-31T19:10:39.933Z,20.12
2022-10-31T19:13:10.118Z,20.06
2022-10-31T19:15:40.213Z,19.88
2022-10-31T19:18:07.359Z,19.84
2022-10-31T19:20:36.183Z,19.68
2022-10-31T19:23:03.052Z,19.50
2022-10-31T19:25:30.422Z,18.96
2022-10-31T19:27:58.120Z,18.57
2022-10-31T19:30:24.826Z,18.23
2022-10-31T19:32:55.259Z,18.11
2022-10-31T19:35:21.816Z,17.77
2022-10-31T19:37:48.324Z,17.82
2022-10-31T19:40:14.861Z,17.64
2022-10-31T19:42:41.349Z,17.58
2022-10-31T19:45:11.078Z,17.23
2022-10-31T19:47:40.396Z,17.17
2022-10-31T19:50:10.115Z,17.12
2022-10-31T19:52:39.389Z,16.96
2022-10-31T19:55:08.243Z,16.84
2022-10-31T19:58:11.727Z,16.81
2022-10-31T20:00:27.476Z,16.69
2022-10-31T20:02:53.970Z,16.66
2022-10-31T20:05:20.470Z,16.52
2022-10-31T20:07:46.985Z,16.43
2022-10-31T20:10:13.461Z,16.31
2022-10-31T20:12:40.034Z,16.45
2022-10-31T20:15:11.140Z,16.74
2022-10-31T20:17:41.391Z,16.98
2022-10-31T20:20:10.980Z,16.86
2022-10-31T20:22:40.846Z,17.06
2022-10-31T20:25:10.988Z,17.08
2022-10-31T20:27:42.266Z,16.93
2022-10-31T20:30:12.411Z,17.26
2022-10-31T20:32:45.226Z,17.40
2022-10-31T20:35:17.367Z,17.41
2022-10-31T20:37:44.376Z,17.40
2022-10-31T20:40:11.183Z,17.42
2022-10-31T20:42:43.721Z,17.48
2022-10-31T20:45:10.778Z,17.48
2022-10-31T20:47:39.490Z,17.52
2022-10-31T20:50:09.500Z,17.60
2022-10-31T20:52:36.100Z,17.44
2022-10-31T20:55:02.824Z,17.41
2022-10-31T20:57:29.481Z,17.38
2022-10-31T20:59:56.075Z,17.33
2022-10-31T21:02:22.873Z,17.24
2022-10-31T21:04:49.690Z,17.27
2022-10-31T21:07:16.276Z,17.30
2022-10-31T21:09:42.847Z,17.39
2022-10-31T21:12:10.049Z,17.16
2022-10-31T21:14:39.457Z,17.35
2022-10-31T21:17:07.879Z,17.19
2022-10-31T21:19:36.174Z,17.08
2022-10-31T21:22:03.569Z,17.14
2022-10-31T21:24:30.105Z,16.85
2022-10-31T21:26:56.737Z,16.73
2022-10-31T21:29:23.349Z,16.57
2022-10-31T21:31:50.882Z,16.37
2022-10-31T21:34:18.537Z,16.37
2022-10-31T21:36:45.316Z,16.34
2022-10-31T21:39:12.220Z,16.26
2022-10-31T21:41:44.224Z,16.21
2022-10-31T21:44:13.824Z,16.12
2022-10-31T21:46:44.389Z,16.08
2022-10-31T21:49:14.042Z,15.98
2022-10-31T21:51:44.181Z,15.96
2022-10-31T21:54:30.131Z,16.04
2022-10-31T21:56:58.760Z,16.07
2022-10-31T21:59:25.955Z,16.08
2022-10-31T22:01:52.995Z,15.97
2022-10-31T22:04:19.873Z,15.79
2022-10-31T22:06:46.587Z,15.85
2022-10-31T22:09:14.780Z,15.93
2022-10-31T22:11:44.542Z,15.96
2022-10-31T22:14:15.196Z,15.90
2022-10-31T22:16:44.732Z,15.79
2022-10-31T22:19:15.435Z,15.90
2022-10-31T22:21:48.632Z,15.77
2022-10-31T22:24:16.409Z,15.84
2022-10-31T22:26:46.120Z,16.01
2022-10-31T22:29:20.561Z,16.09
2022-10-31T22:31:51.925Z,16.26
2022-10-31T22:34:22.115Z,16.30
2022-10-31T22:36:48.730Z,16.44
2022-10-31T22:39:15.323Z,16.27
2022-10-31T22:41:44.299Z,16.29
2022-10-31T22:44:10.938Z,16.13
2022-10-31T22:46:39.851Z,16.19
2022-10-31T22:49:10.039Z,16.13
2022-10-31T22:51:39.100Z,15.97
2022-10-31T22:54:09.829Z,16.02
2022-10-31T22:56:36.419Z,15.92
2022-10-31T22:59:03.357Z,16.16
2022-10-31T23:01:32.515Z,16.21
2022-10-31T23:04:00.244Z,16.35
2022-10-31T23:06:30.300Z,16.21
2022-10-31T23:08:57.627Z,16.52
2022-10-31T23:11:34.589Z,16.41
2022-10-31T23:14:09.673Z,16.43
2022-10-31T23:16:37.571Z,16.43
2022-10-31T23:19:07.999Z,16.45
2022-10-31T23:21:55.356Z,16.40
2022-10-31T23:24:29.631Z,16.44
2022-10-31T23:27:09.434Z,16.44
2022-10-31T23:29:37.379Z,16.63
2022-10-31T23:32:05.393Z,16.61
2022-10-31T23:34:32.262Z,16.36
2022-10-31T23:36:58.850Z,16.59
2022-10-31T23:39:25.431Z,16.53
2022-10-31T23:41:52.509Z,16.67
2022-10-31T23:44:19.056Z,16.56
2022-10-31T23:46:47.654Z,16.56
2022-10-31T23:49:14.196Z,16.42
2022-10-31T23:51:40.792Z,16.55
2022-10-31T23:54:08.148Z,16.55
2022-10-31T23:56:34.979Z,16.43
2022-10-31T23:59:02.111Z,16.54
